createdAt,value
2022-11-29T00:02:00.421Z,11.30
2022-11-29T00:06:08.333Z,12.40
2022-11-29T00:10:10.232Z,11.93
2022-11-29T00:14:14.487Z,13.25
2022-11-29T00:18:16.169Z,13.10
2022-11-29T00:22:17.716Z,12.88
2022-11-29T00:26:19.397Z,12.13
2022-11-29T00:30:21.252Z,11.77
2022-11-29T00:34:22.897Z,12.90
2022-11-29T00:38:24.441Z,12.48
2022-11-29T00:42:26.127Z,12.68
2022-11-29T00:46:27.732Z,12.35
2022-11-29T00:50:29.444Z,12.98
2022-11-29T00:54:31.038Z,12.20
2022-11-29T00:58:33.446Z,13.45
2022-11-29T01:02:35.063Z,12.30
2022-11-29T01:06:36.718Z,10.98
2022-11-29T01:10:38.426Z,13.27
2022-11-29T01:14:39.991Z,12.60
2022-11-29T01:18:42.047Z,12.30
2022-11-29T01:22:43.608Z,12.32
2022-11-29T01:26:45.180Z,12.32
2022-11-29T01:30:46.812Z,13.02
2022-11-29T01:34:48.435Z,13.32
2022-11-29T01:38:50.149Z,13.30
2022-11-29T01:42:51.739Z,13.00
2022-11-29T01:46:54.943Z,12.98
2022-11-29T01:51:00.847Z,13.95
2022-11-29T01:55:05.644Z,14.25
2022-11-29T01:59:14.575Z,12.15
2022-11-29T02:03:18.287Z,13.27
2022-11-29T02:07:19.900Z,15.15
2022-11-29T02:11:33.606Z,17.55
2022-11-29T02:15:46.336Z,16.52
2022-11-29T02:20:06.884Z,14.68
2022-11-29T02:24:35.023Z,14.50
2022-11-29T02:28:55.335Z,13.98
2022-11-29T02:33:34.391Z,13.55
2022-11-29T02:37:54.285Z,12.98
2022-11-29T02:41:58.666Z,13.45
2022-11-29T02:46:21.758Z,13.85
2022-11-29T02:50:52.366Z,15.23
2022-11-29T02:55:15.574Z,14.57
2022-11-29T02:59:40.164Z,15.05
2022-11-29T03:04:06.844Z,15.75
2022-11-29T03:08:29.021Z,14.88
2022-11-29T03:12:43.770Z,15.80
2022-11-29T03:17:09.301Z,15.10
2022-11-29T03:21:22.947Z,14.93
2022-11-29T03:25:31.883Z,16.23
2022-11-29T03:29:39.218Z,18.98
2022-11-29T03:33:58.215Z,15.90
2022-11-29T03:38:11.125Z,16.40
2022-11-29T03:42:37.177Z,16.20
2022-11-29T03:47:00.188Z,14.73
2022-11-29T03:51:14.932Z,15.32
2022-11-29T03:55:22.255Z,14.07
2022-11-29T03:59:47.801Z,15.65
2022-11-29T04:04:26.310Z,15.30
2022-11-29T04:08:39.880Z,14.63
2022-11-29T04:13:09.369Z,13.63
2022-11-29T04:17:31.226Z,13.43
2022-11-29T04:21:48.119Z,15.45
2022-11-29T04:26:09.379Z,15.13
2022-11-29T04:30:22.854Z,13.07
2022-11-29T04:34:58.895Z,14.70
2022-11-29T04:39:32.275Z,13.73
2022-11-29T04:47:50.240Z,14.45
2022-11-29T04:52:19.835Z,14.43
2022-11-29T04:56:45.451Z,15.13
2022-11-29T05:01:18.575Z,14.77
2022-11-29T05:05:30.469Z,14.35
2022-11-29T05:09:47.211Z,15.25
2022-11-29T05:14:03.939Z,15.95
2022-11-29T05:18:13.608Z,16.88
2022-11-29T05:22:48.226Z,14.43
2022-11-29T05:26:54.481Z,13.80
2022-11-29T05:31:19.125Z,14.13
2022-11-29T05:35:36.092Z,13.63
2022-11-29T05:39:37.685Z,13.63
2022-11-29T05:44:00.969Z,14.85
2022-11-29T05:52:44.019Z,14.70
2022-11-29T05:57:08.267Z,15.23
2022-11-29T06:01:24.104Z,17.23
2022-11-29T06:05:35.523Z,15.65
2022-11-29T06:10:11.170Z,15.93
2022-11-29T06:14:28.179Z,17.88
2022-11-29T06:19:00.449Z,14.13
2022-11-29T06:23:24.252Z,15.52
2022-11-29T06:27:25.821Z,14.27
2022-11-29T06:31:39.998Z,14.98
2022-11-29T06:35:52.129Z,15.82
2022-11-29T06:39:54.930Z,14.85
2022-11-29T06:43:56.953Z,13.85
2022-11-29T06:48:03.280Z,13.93
2022-11-29T06:52:28.515Z,14.10
2022-11-29T06:56:48.904Z,14.35
2022-11-29T07:01:06.322Z,13.27
2022-11-29T07:05:18.602Z,14.25
2022-11-29T07:09:25.423Z,14.10
2022-11-29T07:13:27.306Z,14.30
2022-11-29T07:21:50.228Z,13.48
2022-11-29T07:25:57.712Z,12.40
2022-11-29T07:30:05.390Z,13.50
2022-11-29T07:34:22.216Z,12.18
2022-11-29T07:38:56.299Z,14.23
2022-11-29T07:43:22.250Z,13.65
2022-11-29T07:47:23.905Z,13.93
2022-11-29T07:51:25.865Z,15.38
2022-11-29T07:55:27.908Z,15.45
2022-11-29T07:59:29.623Z,16.53
2022-11-29T08:03:31.310Z,17.58
2022-11-29T08:07:36.873Z,19.63
2022-11-29T08:11:39.629Z,19.63
2022-11-29T08:15:45.528Z,15.90
2022-11-29T08:19:47.082Z,16.73
2022-11-29T08:23:49.632Z,15.43
2022-11-29T08:27:51.836Z,15.15
2022-11-29T08:31:54.100Z,14.13
2022-11-29T08:35:56.559Z,13.82
2022-11-29T08:39:59.029Z,13.35
2022-11-29T08:44:00.613Z,12.02
2022-11-29T08:48:02.238Z,14.73
2022-11-29T08:52:22.752Z,12.50
2022-11-29T08:57:16.451Z,13.63
2022-11-29T09:00:47.488Z,13.45
2022-11-29T09:04:49.119Z,13.95
2022-11-29T09:08:50.736Z,13.20
2022-11-29T09:12:52.356Z,13.40
2022-11-29T09:16:53.909Z,12.40
2022-11-29T09:20:55.501Z,13.07
2022-11-29T09:24:57.440Z,12.18
2022-11-29T09:29:03.920Z,13.27
2022-11-29T09:33:05.480Z,12.50
2022-11-29T09:37:07.099Z,13.98
2022-11-29T09:41:30.543Z,13.27
2022-11-29T09:45:38.548Z,12.73
2022-11-29T09:49:43.164Z,12.57
2022-11-29T09:54:16.135Z,13.02
2022-11-29T09:58:21.736Z,12.23
2022-11-29T10:02:53.032Z,11.52
2022-11-29T10:06:54.587Z,10.90
2022-11-29T10:11:13.402Z,11.82
2022-11-29T10:15:27.907Z,11.38
2022-11-29T10:19:43.156Z,10.85
2022-11-29T10:23:53.074Z,12.00
2022-11-29T10:27:54.691Z,11.55
2022-11-29T10:31:59.330Z,12.30
2022-11-29T10:36:05.132Z,12.88
2022-11-29T10:40:15.084Z,11.38
2022-11-29T10:44:16.692Z,10.77
2022-11-29T10:48:21.673Z,11.38
2022-11-29T10:52:24.032Z,11.02
2022-11-29T10:56:31.235Z,11.68
2022-11-29T11:00:43.917Z,12.45
2022-11-29T11:04:47.715Z,13.70
2022-11-29T11:08:57.827Z,11.75
2022-11-29T11:13:04.924Z,12.38
2022-11-29T11:17:27.020Z,12.23
2022-11-29T11:21:28.648Z,11.90
2022-11-29T11:25:35.184Z,11.00
2022-11-29T11:29:41.345Z,12.05
2022-11-29T11:33:44.788Z,13.85
2022-11-29T11:37:56.143Z,13.60
2022-11-29T11:42:16.369Z,12.02
2022-11-29T11:46:18.392Z,12.18
2022-11-29T11:50:37.495Z,11.77
2022-11-29T11:54:39.143Z,12.63
2022-11-29T11:58:43.939Z,12.05
2022-11-29T12:02:45.682Z,12.35
2022-11-29T12:06:52.319Z,12.27
2022-11-29T12:11:02.807Z,13.35
2022-11-29T12:15:16.507Z,14.23
2022-11-29T12:19:23.580Z,14.00
2022-11-29T12:24:00.108Z,15.45
2022-11-29T12:28:01.815Z,15.02
2022-11-29T12:32:25.294Z,15.75
2022-11-29T12:36:35.821Z,17.00
2022-11-29T12:40:43.596Z,18.15
2022-11-29T12:45:23.706Z,16.80
2022-11-29T12:49:34.420Z,16.67
2022-11-29T12:54:04.221Z,18.90
2022-11-29T12:58:16.616Z,18.48
2022-11-29T13:02:42.541Z,18.98
2022-11-29T13:07:02.808Z,17.88
2022-11-29T13:11:24.303Z,19.25
2022-11-29T13:16:01.517Z,18.17
2022-11-29T13:20:18.133Z,19.45
2022-11-29T13:24:28.775Z,19.60
2022-11-29T13:28:34.162Z,19.83
2022-11-29T13:32:57.125Z,18.55
2022-11-29T13:37:15.403Z,19.00
2022-11-29T13:41:26.765Z,19.52
2022-11-29T13:45:37.652Z,19.10
2022-11-29T13:50:02.242Z,20.67
2022-11-29T13:54:07.208Z,19.80
2022-11-29T13:58:17.868Z,20.98
2022-11-29T14:02:30.753Z,19.40
2022-11-29T14:06:38.063Z,20.92
2022-11-29T14:10:39.849Z,19.73
2022-11-29T14:14:51.576Z,20.17
2022-11-29T14:19:05.318Z,21.13
2022-11-29T14:23:07.627Z,20.77
2022-11-29T14:27:10.084Z,20.92
2022-11-29T14:31:31.755Z,20.67
2022-11-29T14:35:43.544Z,20.27
2022-11-29T14:39:52.957Z,20.65
2022-11-29T14:44:18.711Z,19.38
2022-11-29T14:48:28.114Z,17.40
2022-11-29T14:53:02.520Z,17.50
2022-11-29T14:57:58.240Z,17.65
2022-11-29T15:02:12.336Z,18.95
2022-11-29T15:06:23.301Z,21.30
2022-11-29T15:10:29.855Z,18.83
2022-11-29T15:14:42.752Z,19.08
2022-11-29T15:22:54.409Z,17.88
2022-11-29T15:26:57.375Z,18.58
2022-11-29T15:31:10.147Z,18.08
2022-11-29T15:35:18.681Z,17.73
2022-11-29T15:39:46.063Z,18.42
2022-11-29T15:43:52.558Z,17.30
2022-11-29T15:47:54.809Z,17.23
2022-11-29T15:52:05.818Z,15.47
2022-11-29T15:56:33.057Z,16.33
2022-11-29T16:00:35.372Z,17.00
2022-11-29T16:04:43.570Z,15.75
2022-11-29T16:08:50.081Z,16.20
2022-11-29T16:13:07.056Z,14.52
2022-11-29T16:17:27.767Z,14.30
2022-11-29T16:21:41.885Z,14.02
2022-11-29T16:26:00.888Z,14.68
2022-11-29T16:30:20.024Z,15.10
2022-11-29T16:34:27.217Z,15.57
2022-11-29T16:38:29.085Z,14.07
2022-11-29T16:42:33.764Z,14.15
2022-11-29T16:46:40.420Z,13.95
2022-11-29T16:50:43.047Z,14.52
2022-11-29T16:54:44.899Z,14.65
2022-11-29T16:59:20.978Z,13.30
2022-11-29T17:03:15.464Z,13.55
2022-11-29T17:07:27.028Z,14.82
2022-11-29T17:11:28.757Z,13.88
2022-11-29T17:15:30.599Z,15.05
2022-11-29T17:19:32.416Z,14.75
2022-11-29T17:23:34.814Z,14.90
2022-11-29T17:27:36.660Z,16.08
2022-11-29T17:31:38.884Z,14.60
2022-11-29T17:35:40.451Z,16.43
2022-11-29T17:39:44.791Z,15.45
2022-11-29T17:43:46.629Z,13.77
2022-11-29T17:47:51.632Z,14.48
2022-11-29T17:51:53.745Z,13.88
2022-11-29T17:55:55.667Z,14.18
2022-11-29T17:59:57.495Z,12.90
2022-11-29T18:04:01.772Z,12.30
2022-11-29T18:08:05.864Z,13.73
2022-11-29T18:12:08.008Z,13.52
2022-11-29T18:16:12.648Z,13.50
2022-11-29T18:20:15.070Z,13.32
2022-11-29T18:24:17.300Z,13.52
2022-11-29T18:28:18.877Z,13.83
2022-11-29T18:32:20.464Z,15.48
2022-11-29T18:36:31.123Z,15.00
2022-11-29T18:40:33.033Z,14.25
2022-11-29T18:44:34.870Z,13.65
2022-11-29T18:48:36.971Z,15.45
2022-11-29T18:52:40.793Z,15.20
2022-11-29T18:56:43.633Z,15.40
2022-11-29T19:00:45.331Z,13.25
2022-11-29T19:04:48.385Z,15.45
2022-11-29T19:08:52.060Z,12.43
2022-11-29T19:12:53.675Z,13.02
2022-11-29T19:16:55.334Z,12.43
2022-11-29T19:21:11.052Z,14.15
2022-11-29T19:25:12.683Z,13.02
2022-11-29T19:29:15.301Z,12.25
2022-11-29T19:33:16.993Z,14.32
2022-11-29T19:37:18.710Z,16.30
2022-11-29T19:41:26.171Z,18.73
2022-11-29T19:45:27.792Z,13.50
2022-11-29T19:49:29.425Z,14.93
2022-11-29T19:53:32.677Z,15.02
2022-11-29T19:57:34.268Z,15.70
2022-11-29T20:01:41.776Z,14.32
2022-11-29T20:05:53.664Z,14.60
2022-11-29T20:09:55.476Z,15.32
2022-11-29T20:14:01.802Z,14.60
2022-11-29T20:18:04.694Z,12.70
2022-11-29T20:22:06.324Z,13.73
2022-11-29T20:26:14.342Z,13.05
2022-11-29T20:30:16.152Z,14.45
2022-11-29T20:34:19.196Z,15.43
2022-11-29T20:38:51.991Z,14.10
2022-11-29T20:43:10.862Z,13.63
2022-11-29T20:47:21.628Z,13.60
2022-11-29T20:51:28.831Z,14.55
2022-11-29T20:55:30.621Z,15.90
2022-11-29T20:59:32.283Z,16.40
2022-11-29T21:03:34.334Z,14.40
2022-11-29T21:07:36.101Z,14.40
2022-11-29T21:11:37.993Z,13.80
2022-11-29T21:15:41.377Z,13.43
2022-11-29T21:19:43.931Z,13.95
2022-11-29T21:23:56.919Z,13.63
2022-11-29T21:28:00.470Z,15.32
2022-11-29T21:32:03.086Z,15.20
2022-11-29T21:36:06.197Z,13.60
2022-11-29T21:40:09.564Z,14.45
2022-11-29T21:44:11.265Z,14.13
2022-11-29T21:48:31.397Z,14.43
2022-11-29T21:52:32.955Z,12.90
2022-11-29T21:56:34.599Z,12.95
2022-11-29T22:00:37.682Z,14.10
2022-11-29T22:04:39.498Z,13.88
2022-11-29T22:08:42.061Z,13.77
2022-11-29T22:12:51.873Z,15.25
2022-11-29T22:16:56.976Z,17.75
2022-11-29T22:21:05.557Z,16.00
2022-11-29T22:25:07.554Z,15.70
2022-11-29T22:29:11.437Z,13.93
2022-11-29T22:33:13.611Z,16.85
2022-11-29T22:37:15.336Z,13.67
2022-11-29T22:41:18.574Z,13.52
2022-11-29T22:45:20.149Z,13.60
2022-11-29T22:49:21.822Z,14.77
2022-11-29T22:53:23.378Z,13.35
2022-11-29T22:57:24.951Z,13.75
2022-11-29T23:01:29.370Z,13.60
2022-11-29T23:05:32.993Z,15.32
2022-11-29T23:09:34.565Z,17.60
2022-11-29T23:13:38.965Z,42.20
2022-11-29T23:17:40.717Z,50.75
2022-11-29T23:21:44.712Z,58.80
2022-11-29T23:25:49.989Z,36.88
2022-11-29T23:29:51.732Z,29.45
2022-11-29T23:33:53.435Z,25.23
2022-11-29T23:37:55.116Z,21.83
2022-11-29T23:41:56.811Z,20.80
2022-11-29T23:45:58.907Z,17.75
2022-11-29T23:50:00.562Z,16.10
2022-11-29T23:54:02.172Z,17.17
2022-11-29T23:58:03.878Z,18.98
